EZZ93R EGKK-EDDB
Flight info
| Callsign | EZZ93R |
|---|---|
| Flight time | 1h 29m |
| Altitude | 39000 |
| Route | FRANE1Z FRANE M604 GASBA M197 REDFA DCT TACHA DCT ROBEG L980 SAS T207 OGBER OGB06L |
| Aircraft | A20N/M-V/N |
Departure
| Time | 2026-05-05 16:39 |
|---|---|
| Airport | London Gatwick Airport (EGKK) |
Arrival
| Time | 2026-05-05 18:08 |
|---|---|
| Airport | Berlin Brandenburg Airport (EDDB) |
| Time | Latitude | Longitude | Altitude | Speed | Heading |
|---|---|---|---|---|---|
| 2026-05-05 16:01 | 51.15809 | -0.17753 | 205 ft | 0 kts | 349° |
| 2026-05-05 16:29 | 51.15797 | -0.17749 | 218 ft | 4 kts | 346° |
| 2026-05-05 16:29 | 51.15771 | -0.17737 | 208 ft | 4 kts | 338° |
| 2026-05-05 16:29 | 51.15747 | -0.17718 | 217 ft | 4 kts | 319° |
| 2026-05-05 16:29 | 51.15733 | -0.17688 | 213 ft | 2 kts | 269° |
| 2026-05-05 16:30 | 51.15733 | -0.17679 | 207 ft | 1 kts | 268° |
| 2026-05-05 16:33 | 51.15730 | -0.17732 | 209 ft | 9 kts | 261° |
| 2026-05-05 16:33 | 51.15725 | -0.17771 | 206 ft | 6 kts | 256° |
| 2026-05-05 16:33 | 51.15725 | -0.17773 | 205 ft | 0 kts | 256° |
| 2026-05-05 16:34 | 51.15724 | -0.17779 | 205 ft | 3 kts | 255° |
| 2026-05-05 16:35 | 51.15720 | -0.17802 | 205 ft | 11 kts | 257° |
| 2026-05-05 16:35 | 51.15692 | -0.18005 | 207 ft | 21 kts | 251° |
| 2026-05-05 16:35 | 51.15652 | -0.18211 | 213 ft | 14 kts | 226° |
| 2026-05-05 16:35 | 51.15559 | -0.18298 | 210 ft | 18 kts | 208° |
| 2026-05-05 16:36 | 51.15442 | -0.18293 | 212 ft | 19 kts | 168° |
| 2026-05-05 16:36 | 51.15297 | -0.18246 | 215 ft | 23 kts | 168° |
| 2026-05-05 16:36 | 51.15185 | -0.18348 | 215 ft | 21 kts | 256° |
| 2026-05-05 16:36 | 51.15178 | -0.18391 | 210 ft | 3 kts | 256° |
| 2026-05-05 16:37 | 51.15083 | -0.18681 | 210 ft | 56 kts | 232° |
| 2026-05-05 16:37 | 51.14919 | -0.19312 | 207 ft | 72 kts | 279° |
| 2026-05-05 16:37 | 51.14847 | -0.20177 | 203 ft | 80 kts | 254° |
| 2026-05-05 16:37 | 51.14737 | -0.20745 | 213 ft | 13 kts | 211° |
| 2026-05-05 16:38 | 51.14726 | -0.20749 | 208 ft | 11 kts | 193° |
| 2026-05-05 16:38 | 51.14620 | -0.20690 | 214 ft | 20 kts | 154° |
| 2026-05-05 16:38 | 51.14597 | -0.20555 | 217 ft | 11 kts | 91° |
| 2026-05-05 16:38 | 51.14662 | -0.20121 | 214 ft | 96 kts | 75° |
| 2026-05-05 16:39 | 51.14868 | -0.18601 | 326 ft | 173 kts | 75° |
| 2026-05-05 16:39 | 51.15152 | -0.16604 | 1172 ft | 196 kts | 77° |
| 2026-05-05 16:39 | 51.15457 | -0.14409 | 2058 ft | 209 kts | 76° |
| 2026-05-05 16:39 | 51.15787 | -0.12006 | 2981 ft | 235 kts | 76° |
| 2026-05-05 16:40 | 51.16148 | -0.09364 | 4138 ft | 251 kts | 76° |
| 2026-05-05 16:40 | 51.16522 | -0.06625 | 5395 ft | 261 kts | 76° |
| 2026-05-05 16:40 | 51.16854 | -0.03730 | 6712 ft | 270 kts | 83° |
| 2026-05-05 16:40 | 51.17179 | -0.00748 | 7997 ft | 276 kts | 68° |
| 2026-05-05 16:41 | 51.18047 | 0.02025 | 9293 ft | 284 kts | 60° |
| 2026-05-05 16:41 | 51.19040 | 0.04789 | 10527 ft | 291 kts | 60° |
| 2026-05-05 16:41 | 51.20055 | 0.07602 | 11817 ft | 293 kts | 60° |
| 2026-05-05 16:41 | 51.21063 | 0.10468 | 13079 ft | 298 kts | 61° |
| 2026-05-05 16:42 | 51.22054 | 0.13357 | 14237 ft | 303 kts | 62° |
| 2026-05-05 16:42 | 51.23065 | 0.16342 | 15267 ft | 310 kts | 62° |
| 2026-05-05 16:42 | 51.24095 | 0.19410 | 16311 ft | 316 kts | 62° |
| 2026-05-05 16:42 | 51.25147 | 0.22551 | 17342 ft | 323 kts | 62° |
| 2026-05-05 16:43 | 51.26202 | 0.25702 | 18487 ft | 330 kts | 63° |
| 2026-05-05 16:43 | 51.27291 | 0.28959 | 19386 ft | 335 kts | 63° |
| 2026-05-05 16:43 | 51.28400 | 0.32279 | 20287 ft | 341 kts | 63° |
| 2026-05-05 16:43 | 51.29529 | 0.35661 | 21171 ft | 346 kts | 63° |
| 2026-05-05 16:44 | 51.30653 | 0.39036 | 22062 ft | 351 kts | 63° |
| 2026-05-05 16:44 | 51.31810 | 0.42513 | 22918 ft | 357 kts | 63° |
| 2026-05-05 16:44 | 51.32983 | 0.46043 | 23759 ft | 362 kts | 63° |
| 2026-05-05 16:44 | 51.34175 | 0.49635 | 24482 ft | 367 kts | 63° |
| 2026-05-05 16:45 | 51.35361 | 0.53215 | 25200 ft | 370 kts | 63° |
| 2026-05-05 16:45 | 51.36578 | 0.56893 | 25892 ft | 375 kts | 63° |
| 2026-05-05 16:45 | 51.37963 | 0.60472 | 26475 ft | 381 kts | 51° |
| 2026-05-05 16:45 | 51.39939 | 0.63243 | 27123 ft | 387 kts | 32° |
| 2026-05-05 16:46 | 51.42421 | 0.64965 | 27771 ft | 391 kts | 15° |
| 2026-05-05 16:46 | 51.45132 | 0.65926 | 28019 ft | 407 kts | 9° |
| 2026-05-05 16:46 | 51.47946 | 0.66709 | 28186 ft | 423 kts | 9° |
| 2026-05-05 16:46 | 51.50886 | 0.67596 | 28354 ft | 438 kts | 11° |
| 2026-05-05 16:47 | 51.53917 | 0.68627 | 28547 ft | 451 kts | 12° |
| 2026-05-05 16:47 | 51.57009 | 0.69760 | 29036 ft | 456 kts | 12° |
| 2026-05-05 16:47 | 51.60079 | 0.70922 | 29603 ft | 459 kts | 13° |
| 2026-05-05 16:47 | 51.63217 | 0.72122 | 30124 ft | 463 kts | 13° |
| 2026-05-05 16:48 | 51.66355 | 0.73325 | 30578 ft | 467 kts | 13° |
| 2026-05-05 16:48 | 51.69527 | 0.74543 | 31042 ft | 470 kts | 13° |
| 2026-05-05 16:48 | 51.72689 | 0.75757 | 31578 ft | 471 kts | 13° |
| 2026-05-05 16:48 | 51.75877 | 0.76944 | 32175 ft | 471 kts | 11° |
| 2026-05-05 16:49 | 51.79048 | 0.78314 | 32766 ft | 471 kts | 19° |
| 2026-05-05 16:49 | 51.82000 | 0.80588 | 33344 ft | 471 kts | 32° |
| 2026-05-05 16:49 | 51.84602 | 0.83778 | 33914 ft | 470 kts | 44° |
| 2026-05-05 16:49 | 51.86755 | 0.87778 | 34385 ft | 469 kts | 56° |
| 2026-05-05 16:50 | 51.88313 | 0.92294 | 34856 ft | 466 kts | 69° |
| 2026-05-05 16:50 | 51.89274 | 0.97271 | 35308 ft | 462 kts | 81° |
| 2026-05-05 16:50 | 51.89574 | 1.02434 | 35748 ft | 459 kts | 92° |
| 2026-05-05 16:50 | 51.89558 | 1.07614 | 36168 ft | 460 kts | 90° |
| 2026-05-05 16:51 | 51.89801 | 1.12793 | 36597 ft | 461 kts | 84° |
| 2026-05-05 16:51 | 51.90356 | 1.17870 | 37042 ft | 462 kts | 79° |
| 2026-05-05 16:51 | 51.91117 | 1.22908 | 37469 ft | 462 kts | 76° |
| 2026-05-05 16:51 | 51.91984 | 1.27945 | 37895 ft | 462 kts | 75° |
| 2026-05-05 16:52 | 51.92881 | 1.32939 | 38312 ft | 462 kts | 75° |
| 2026-05-05 16:52 | 51.93784 | 1.37939 | 38680 ft | 462 kts | 75° |
| 2026-05-05 16:52 | 51.94681 | 1.42936 | 38923 ft | 462 kts | 75° |
| 2026-05-05 16:52 | 51.95559 | 1.47864 | 38990 ft | 461 kts | 75° |
| 2026-05-05 16:53 | 51.97326 | 1.57858 | 38998 ft | 460 kts | 75° |
| 2026-05-05 16:53 | 51.99076 | 1.67830 | 39005 ft | 461 kts | 75° |
| 2026-05-05 16:54 | 52.00698 | 1.77837 | 39003 ft | 461 kts | 77° |
| 2026-05-05 16:54 | 52.02227 | 1.87927 | 39007 ft | 461 kts | 77° |
| 2026-05-05 16:55 | 52.03775 | 1.98034 | 39006 ft | 461 kts | 77° |
| 2026-05-05 16:55 | 52.05323 | 2.08130 | 38997 ft | 461 kts | 77° |
| 2026-05-05 16:56 | 52.06861 | 2.18219 | 39000 ft | 462 kts | 78° |
| 2026-05-05 16:56 | 52.08396 | 2.28345 | 38992 ft | 462 kts | 78° |
| 2026-05-05 16:57 | 52.09924 | 2.38499 | 39000 ft | 462 kts | 78° |
| 2026-05-05 16:57 | 52.11449 | 2.48662 | 39004 ft | 463 kts | 76° |
| 2026-05-05 16:58 | 52.13329 | 2.58608 | 38998 ft | 463 kts | 74° |
| 2026-05-05 16:58 | 52.15243 | 2.68619 | 38999 ft | 464 kts | 74° |
| 2026-05-05 16:59 | 52.17149 | 2.78680 | 38999 ft | 464 kts | 74° |
| 2026-05-05 16:59 | 52.19042 | 2.88741 | 39004 ft | 464 kts | 74° |
| 2026-05-05 17:00 | 52.20915 | 2.98745 | 39007 ft | 465 kts | 75° |
| 2026-05-05 17:00 | 52.22790 | 3.08816 | 39008 ft | 465 kts | 75° |
| 2026-05-05 17:01 | 52.24661 | 3.18927 | 39011 ft | 465 kts | 75° |
| 2026-05-05 17:01 | 52.25730 | 3.29239 | 39012 ft | 462 kts | 89° |
| 2026-05-05 17:02 | 52.25922 | 3.39747 | 39011 ft | 462 kts | 90° |
| 2026-05-05 17:02 | 52.26137 | 3.50168 | 39006 ft | 462 kts | 90° |
| 2026-05-05 17:03 | 52.26349 | 3.60658 | 39004 ft | 462 kts | 90° |
| 2026-05-05 17:03 | 52.26544 | 3.71090 | 38992 ft | 463 kts | 90° |
| 2026-05-05 17:04 | 52.26726 | 3.81593 | 38991 ft | 463 kts | 90° |
| 2026-05-05 17:04 | 52.26899 | 3.92108 | 38985 ft | 463 kts | 91° |
| 2026-05-05 17:05 | 52.27062 | 4.02610 | 38977 ft | 463 kts | 91° |
| 2026-05-05 17:05 | 52.27215 | 4.13061 | 38973 ft | 463 kts | 91° |
| 2026-05-05 17:06 | 52.27360 | 4.23572 | 38966 ft | 462 kts | 91° |
| 2026-05-05 17:06 | 52.27495 | 4.34007 | 38963 ft | 462 kts | 91° |
| 2026-05-05 17:07 | 52.27621 | 4.44497 | 38958 ft | 462 kts | 91° |
| 2026-05-05 17:07 | 52.27737 | 4.54988 | 38961 ft | 462 kts | 91° |
| 2026-05-05 17:08 | 52.27844 | 4.65411 | 38963 ft | 462 kts | 91° |
| 2026-05-05 17:08 | 52.27942 | 4.75909 | 38961 ft | 463 kts | 91° |
| 2026-05-05 17:09 | 52.28031 | 4.86418 | 38966 ft | 463 kts | 91° |
| 2026-05-05 17:09 | 52.28111 | 4.96935 | 38967 ft | 464 kts | 91° |
| 2026-05-05 17:10 | 52.28181 | 5.07406 | 38962 ft | 464 kts | 91° |
| 2026-05-05 17:10 | 52.28242 | 5.17972 | 38963 ft | 465 kts | 92° |
| 2026-05-05 17:11 | 52.28294 | 5.28530 | 38967 ft | 465 kts | 92° |
| 2026-05-05 17:11 | 52.28337 | 5.39117 | 38970 ft | 466 kts | 92° |
| 2026-05-05 17:12 | 52.28369 | 5.49632 | 38970 ft | 466 kts | 92° |
| 2026-05-05 17:12 | 52.28393 | 5.60246 | 38973 ft | 467 kts | 92° |
| 2026-05-05 17:13 | 52.28407 | 5.70855 | 38974 ft | 467 kts | 92° |
| 2026-05-05 17:13 | 52.28412 | 5.81403 | 38961 ft | 467 kts | 92° |
| 2026-05-05 17:14 | 52.28407 | 5.92029 | 38963 ft | 468 kts | 92° |
| 2026-05-05 17:14 | 52.28393 | 6.02646 | 38964 ft | 468 kts | 92° |
| 2026-05-05 17:15 | 52.28369 | 6.13201 | 38962 ft | 468 kts | 92° |
| 2026-05-05 17:15 | 52.28335 | 6.23819 | 38959 ft | 468 kts | 92° |
| 2026-05-05 17:16 | 52.28293 | 6.34454 | 38958 ft | 468 kts | 92° |
| 2026-05-05 17:16 | 52.28241 | 6.45069 | 38953 ft | 468 kts | 92° |
| 2026-05-05 17:17 | 52.28179 | 6.55705 | 38959 ft | 469 kts | 93° |
| 2026-05-05 17:17 | 52.28106 | 6.66478 | 38957 ft | 470 kts | 93° |
| 2026-05-05 17:18 | 52.28027 | 6.76956 | 38948 ft | 469 kts | 93° |
| 2026-05-05 17:18 | 52.27935 | 6.87652 | 38945 ft | 470 kts | 93° |
| 2026-05-05 17:19 | 52.27836 | 6.98235 | 38935 ft | 470 kts | 93° |
| 2026-05-05 17:19 | 52.27725 | 7.08928 | 38931 ft | 469 kts | 93° |
| 2026-05-05 17:20 | 52.27606 | 7.19532 | 38925 ft | 469 kts | 93° |
| 2026-05-05 17:20 | 52.27477 | 7.30196 | 38925 ft | 470 kts | 93° |
| 2026-05-05 17:21 | 52.27339 | 7.40804 | 38922 ft | 470 kts | 94° |
| 2026-05-05 17:22 | 52.27112 | 7.56819 | 38914 ft | 470 kts | 94° |
| 2026-05-05 17:22 | 52.26949 | 7.67506 | 38918 ft | 470 kts | 94° |
| 2026-05-05 17:23 | 52.26778 | 7.78097 | 38918 ft | 471 kts | 94° |
| 2026-05-05 17:23 | 52.26595 | 7.88792 | 38923 ft | 471 kts | 94° |
| 2026-05-05 17:24 | 52.26545 | 7.99503 | 38924 ft | 472 kts | 92° |
| 2026-05-05 17:24 | 52.26580 | 8.10220 | 38926 ft | 472 kts | 92° |
| 2026-05-05 17:25 | 52.26580 | 8.20862 | 38929 ft | 472 kts | 92° |
| 2026-05-05 17:25 | 52.26556 | 8.31597 | 38928 ft | 473 kts | 92° |
| 2026-05-05 17:26 | 52.26521 | 8.42314 | 38921 ft | 473 kts | 92° |
| 2026-05-05 17:26 | 52.26477 | 8.53002 | 38927 ft | 473 kts | 92° |
| 2026-05-05 17:27 | 52.26423 | 8.63739 | 38929 ft | 474 kts | 92° |
| 2026-05-05 17:27 | 52.26359 | 8.74492 | 38931 ft | 474 kts | 92° |
| 2026-05-05 17:28 | 52.26285 | 8.85230 | 38929 ft | 473 kts | 92° |
| 2026-05-05 17:28 | 52.26202 | 8.95977 | 38925 ft | 473 kts | 93° |
| 2026-05-05 17:29 | 52.26109 | 9.06696 | 38918 ft | 473 kts | 93° |
| 2026-05-05 17:29 | 52.26007 | 9.17359 | 38919 ft | 472 kts | 93° |
| 2026-05-05 17:30 | 52.25896 | 9.28067 | 38921 ft | 472 kts | 93° |
| 2026-05-05 17:30 | 52.25774 | 9.38780 | 38915 ft | 472 kts | 93° |
| 2026-05-05 17:31 | 52.25642 | 9.49484 | 38920 ft | 472 kts | 93° |
| 2026-05-05 17:31 | 52.25502 | 9.60098 | 38919 ft | 471 kts | 94° |
| 2026-05-05 17:32 | 52.25376 | 9.69060 | 38909 ft | 471 kts | 94° |
| 2026-05-05 17:32 | 52.25194 | 9.81481 | 38911 ft | 471 kts | 92° |
| 2026-05-05 17:33 | 52.26112 | 9.92084 | 38978 ft | 476 kts | 74° |
| 2026-05-05 17:33 | 52.28548 | 10.02184 | 38923 ft | 479 kts | 69° |
| 2026-05-05 17:34 | 52.31078 | 10.12259 | 38921 ft | 479 kts | 69° |
| 2026-05-05 17:34 | 52.33167 | 10.20642 | 38922 ft | 479 kts | 69° |
| 2026-05-05 17:35 | 52.36074 | 10.32361 | 38914 ft | 479 kts | 69° |
| 2026-05-05 17:35 | 52.38579 | 10.42503 | 38913 ft | 480 kts | 69° |
| 2026-05-05 17:36 | 52.40651 | 10.50927 | 38920 ft | 480 kts | 69° |
| 2026-05-05 17:36 | 52.43122 | 10.61097 | 38911 ft | 480 kts | 69° |
| 2026-05-05 17:37 | 52.45557 | 10.71304 | 38923 ft | 481 kts | 69° |
| 2026-05-05 17:37 | 52.47982 | 10.81502 | 38916 ft | 481 kts | 69° |
| 2026-05-05 17:38 | 52.50398 | 10.91694 | 38860 ft | 481 kts | 69° |
| 2026-05-05 17:38 | 52.51610 | 10.96822 | 38567 ft | 482 kts | 69° |
| 2026-05-05 17:38 | 52.52819 | 11.01951 | 37895 ft | 483 kts | 70° |
| 2026-05-05 17:38 | 52.53915 | 11.07172 | 37008 ft | 484 kts | 76° |
| 2026-05-05 17:39 | 52.54612 | 11.12582 | 36126 ft | 482 kts | 84° |
| 2026-05-05 17:39 | 52.54899 | 11.18013 | 35264 ft | 472 kts | 92° |
| 2026-05-05 17:39 | 52.55002 | 11.23398 | 34454 ft | 474 kts | 92° |
| 2026-05-05 17:39 | 52.55126 | 11.28802 | 33636 ft | 481 kts | 92° |
| 2026-05-05 17:40 | 52.55254 | 11.34299 | 32733 ft | 481 kts | 91° |
| 2026-05-05 17:40 | 52.55379 | 11.39801 | 31869 ft | 480 kts | 91° |
| 2026-05-05 17:40 | 52.55499 | 11.45306 | 31009 ft | 481 kts | 91° |
| 2026-05-05 17:40 | 52.55614 | 11.50741 | 30199 ft | 481 kts | 91° |
| 2026-05-05 17:41 | 52.55727 | 11.56238 | 29302 ft | 475 kts | 91° |
| 2026-05-05 17:41 | 52.55836 | 11.61618 | 28391 ft | 469 kts | 91° |
| 2026-05-05 17:41 | 52.55939 | 11.66887 | 27526 ft | 466 kts | 91° |
| 2026-05-05 17:41 | 52.56041 | 11.72201 | 26666 ft | 462 kts | 91° |
| 2026-05-05 17:42 | 52.56139 | 11.77492 | 25825 ft | 458 kts | 91° |
| 2026-05-05 17:42 | 52.56234 | 11.82702 | 25019 ft | 453 kts | 91° |
| 2026-05-05 17:42 | 52.56325 | 11.87835 | 24230 ft | 449 kts | 91° |
| 2026-05-05 17:42 | 52.56413 | 11.92903 | 23470 ft | 444 kts | 91° |
| 2026-05-05 17:43 | 52.56498 | 11.97991 | 22571 ft | 440 kts | 91° |
| 2026-05-05 17:43 | 52.56579 | 12.02982 | 21703 ft | 435 kts | 90° |
| 2026-05-05 17:43 | 52.56657 | 12.07858 | 20864 ft | 430 kts | 90° |
| 2026-05-05 17:43 | 52.56707 | 12.12712 | 20026 ft | 419 kts | 91° |
| 2026-05-05 17:44 | 52.56704 | 12.17427 | 19222 ft | 405 kts | 92° |
| 2026-05-05 17:44 | 52.56697 | 12.21977 | 18445 ft | 393 kts | 90° |
| 2026-05-05 17:44 | 52.56955 | 12.26423 | 17612 ft | 391 kts | 82° |
| 2026-05-05 17:44 | 52.57391 | 12.30814 | 16744 ft | 386 kts | 82° |
| 2026-05-05 17:45 | 52.57814 | 12.35119 | 15905 ft | 379 kts | 82° |
| 2026-05-05 17:45 | 52.58229 | 12.39391 | 15084 ft | 376 kts | 82° |
| 2026-05-05 17:45 | 52.58637 | 12.43608 | 14342 ft | 370 kts | 82° |
| 2026-05-05 17:45 | 52.59047 | 12.47773 | 13998 ft | 369 kts | 82° |
| 2026-05-05 17:46 | 52.59463 | 12.51888 | 13870 ft | 370 kts | 82° |
| 2026-05-05 17:46 | 52.59885 | 12.56075 | 13850 ft | 373 kts | 82° |
| 2026-05-05 17:46 | 52.60307 | 12.60263 | 13844 ft | 369 kts | 82° |
| 2026-05-05 17:46 | 52.60727 | 12.64426 | 13843 ft | 369 kts | 82° |
| 2026-05-05 17:47 | 52.61147 | 12.68599 | 13843 ft | 370 kts | 82° |
| 2026-05-05 17:47 | 52.61565 | 12.72770 | 13846 ft | 369 kts | 82° |
| 2026-05-05 17:47 | 52.61985 | 12.76937 | 13847 ft | 370 kts | 82° |
| 2026-05-05 17:47 | 52.62405 | 12.81113 | 13848 ft | 369 kts | 82° |
| 2026-05-05 17:48 | 52.62822 | 12.85254 | 13848 ft | 367 kts | 82° |
| 2026-05-05 17:48 | 52.63229 | 12.89266 | 13825 ft | 348 kts | 81° |
| 2026-05-05 17:48 | 52.63640 | 12.93110 | 13691 ft | 332 kts | 82° |
| 2026-05-05 17:48 | 52.64014 | 12.96746 | 13495 ft | 312 kts | 82° |
| 2026-05-05 17:49 | 52.64367 | 13.00167 | 13306 ft | 292 kts | 82° |
| 2026-05-05 17:49 | 52.64696 | 13.03331 | 12979 ft | 280 kts | 82° |
| 2026-05-05 17:49 | 52.65022 | 13.06483 | 12439 ft | 277 kts | 82° |
| 2026-05-05 17:49 | 52.65312 | 13.09597 | 11895 ft | 274 kts | 88° |
| 2026-05-05 17:50 | 52.65034 | 13.12632 | 11273 ft | 266 kts | 115° |
| 2026-05-05 17:50 | 52.63969 | 13.15041 | 10600 ft | 259 kts | 144° |
| 2026-05-05 17:50 | 52.62382 | 13.16245 | 10080 ft | 248 kts | 175° |
| 2026-05-05 17:50 | 52.60662 | 13.16008 | 9899 ft | 250 kts | 194° |
| 2026-05-05 17:51 | 52.58971 | 13.15378 | 9838 ft | 248 kts | 195° |
| 2026-05-05 17:51 | 52.57283 | 13.14748 | 9840 ft | 251 kts | 195° |
| 2026-05-05 17:51 | 52.55584 | 13.14112 | 9836 ft | 249 kts | 195° |
| 2026-05-05 17:51 | 52.53919 | 13.13490 | 9836 ft | 249 kts | 195° |
| 2026-05-05 17:52 | 52.52213 | 13.12852 | 9833 ft | 248 kts | 195° |
| 2026-05-05 17:52 | 52.50548 | 13.12227 | 9836 ft | 249 kts | 195° |
| 2026-05-05 17:52 | 52.48863 | 13.11594 | 9836 ft | 249 kts | 195° |
| 2026-05-05 17:52 | 52.47170 | 13.10961 | 9835 ft | 248 kts | 195° |
| 2026-05-05 17:53 | 52.45498 | 13.10337 | 9833 ft | 248 kts | 195° |
| 2026-05-05 17:53 | 52.43792 | 13.09695 | 9832 ft | 249 kts | 195° |
| 2026-05-05 17:53 | 52.42129 | 13.09069 | 9765 ft | 247 kts | 195° |
| 2026-05-05 17:53 | 52.40455 | 13.08441 | 9389 ft | 246 kts | 195° |
| 2026-05-05 17:54 | 52.38789 | 13.07817 | 8901 ft | 245 kts | 195° |
| 2026-05-05 17:54 | 52.37127 | 13.07192 | 8443 ft | 244 kts | 195° |
| 2026-05-05 17:54 | 52.35474 | 13.06568 | 7994 ft | 243 kts | 195° |
| 2026-05-05 17:54 | 52.33827 | 13.05936 | 7538 ft | 242 kts | 195° |
| 2026-05-05 17:55 | 52.32204 | 13.05298 | 7088 ft | 242 kts | 194° |
| 2026-05-05 17:55 | 52.30567 | 13.04643 | 6628 ft | 242 kts | 192° |
| 2026-05-05 17:55 | 52.28893 | 13.04552 | 6174 ft | 241 kts | 173° |
| 2026-05-05 17:55 | 52.27315 | 13.05443 | 5724 ft | 240 kts | 155° |
| 2026-05-05 17:56 | 52.25828 | 13.06584 | 5306 ft | 238 kts | 155° |
| 2026-05-05 17:56 | 52.24335 | 13.07727 | 4898 ft | 236 kts | 154° |
| 2026-05-05 17:56 | 52.22850 | 13.08863 | 4487 ft | 235 kts | 154° |
| 2026-05-05 17:56 | 52.21377 | 13.09989 | 4070 ft | 233 kts | 154° |
| 2026-05-05 17:57 | 52.19915 | 13.11105 | 3855 ft | 234 kts | 154° |
| 2026-05-05 17:57 | 52.18339 | 13.11835 | 3528 ft | 243 kts | 177° |
| 2026-05-05 17:57 | 52.16646 | 13.11592 | 3307 ft | 247 kts | 197° |
| 2026-05-05 17:57 | 52.15219 | 13.10136 | 3124 ft | 249 kts | 227° |
| 2026-05-05 17:58 | 52.14419 | 13.07671 | 2956 ft | 249 kts | 259° |
| 2026-05-05 17:58 | 52.14495 | 13.04897 | 2831 ft | 245 kts | 290° |
| 2026-05-05 17:58 | 52.15428 | 13.02626 | 2826 ft | 242 kts | 322° |
| 2026-05-05 17:58 | 52.16839 | 13.01336 | 2823 ft | 226 kts | 337° |
| 2026-05-05 17:59 | 52.18198 | 13.00301 | 2821 ft | 208 kts | 338° |
| 2026-05-05 17:59 | 52.19512 | 12.99303 | 2825 ft | 210 kts | 338° |
| 2026-05-05 17:59 | 52.20844 | 12.98352 | 2824 ft | 208 kts | 346° |
| 2026-05-05 17:59 | 52.22249 | 12.98429 | 2823 ft | 204 kts | 22° |
| 2026-05-05 18:00 | 52.23305 | 12.99795 | 2825 ft | 200 kts | 57° |
| 2026-05-05 18:00 | 52.23844 | 13.01893 | 2822 ft | 201 kts | 70° |
| 2026-05-05 18:00 | 52.24326 | 13.04052 | 2829 ft | 201 kts | 70° |
| 2026-05-05 18:00 | 52.24799 | 13.06091 | 2821 ft | 183 kts | 67° |
| 2026-05-05 18:01 | 52.25287 | 13.07976 | 2828 ft | 190 kts | 68° |
| 2026-05-05 18:01 | 52.25794 | 13.10073 | 2826 ft | 201 kts | 69° |
| 2026-05-05 18:01 | 52.26299 | 13.12192 | 2821 ft | 200 kts | 69° |
| 2026-05-05 18:01 | 52.26798 | 13.14285 | 2825 ft | 200 kts | 69° |
| 2026-05-05 18:02 | 52.27308 | 13.16425 | 2824 ft | 202 kts | 68° |
| 2026-05-05 18:02 | 52.27809 | 13.18529 | 2824 ft | 190 kts | 68° |
| 2026-05-05 18:02 | 52.28258 | 13.20416 | 2818 ft | 167 kts | 68° |
| 2026-05-05 18:02 | 52.28648 | 13.22050 | 2828 ft | 144 kts | 69° |
| 2026-05-05 18:03 | 52.29014 | 13.23586 | 2835 ft | 154 kts | 69° |
| 2026-05-05 18:03 | 52.29408 | 13.25240 | 2827 ft | 156 kts | 69° |
| 2026-05-05 18:03 | 52.29797 | 13.26875 | 2735 ft | 154 kts | 68° |
| 2026-05-05 18:03 | 52.30171 | 13.28447 | 2535 ft | 138 kts | 68° |
| 2026-05-05 18:04 | 52.30490 | 13.29793 | 2368 ft | 120 kts | 68° |
| 2026-05-05 18:04 | 52.30790 | 13.31056 | 2214 ft | 118 kts | 68° |
| 2026-05-05 18:04 | 52.31085 | 13.32291 | 2061 ft | 116 kts | 68° |
| 2026-05-05 18:04 | 52.31373 | 13.33505 | 1909 ft | 117 kts | 68° |
| 2026-05-05 18:05 | 52.31667 | 13.34737 | 1755 ft | 115 kts | 66° |
| 2026-05-05 18:05 | 52.31959 | 13.35966 | 1600 ft | 114 kts | 67° |
| 2026-05-05 18:05 | 52.32244 | 13.37171 | 1448 ft | 115 kts | 68° |
| 2026-05-05 18:05 | 52.32541 | 13.38409 | 1293 ft | 118 kts | 68° |
| 2026-05-05 18:06 | 52.32830 | 13.39628 | 1123 ft | 115 kts | 68° |
| 2026-05-05 18:06 | 52.33022 | 13.40441 | 1023 ft | 115 kts | 69° |
| 2026-05-05 18:06 | 52.33412 | 13.42085 | 789 ft | 115 kts | 68° |
| 2026-05-05 18:06 | 52.33693 | 13.43284 | 631 ft | 111 kts | 68° |
| 2026-05-05 18:07 | 52.33978 | 13.44478 | 483 ft | 114 kts | 67° |
| 2026-05-05 18:07 | 52.34263 | 13.45670 | 362 ft | 115 kts | 68° |
| 2026-05-05 18:07 | 52.34555 | 13.46887 | 205 ft | 113 kts | 69° |
| 2026-05-05 18:07 | 52.34810 | 13.47963 | 164 ft | 72 kts | 69° |
| 2026-05-05 18:08 | 52.34975 | 13.48648 | 162 ft | 64 kts | 68° |
| 2026-05-05 18:08 | 52.35088 | 13.49093 | 159 ft | 22 kts | 62° |
| 2026-05-05 18:08 | 52.35185 | 13.49296 | 161 ft | 24 kts | 40° |
| 2026-05-05 18:08 | 52.35305 | 13.49448 | 160 ft | 14 kts | 34° |
| 2026-05-05 18:09 | 52.35387 | 13.49547 | 159 ft | 16 kts | 39° |
| 2026-05-05 18:09 | 52.35463 | 13.49723 | 155 ft | 22 kts | 72° |
| 2026-05-05 18:09 | 52.35519 | 13.49966 | 155 ft | 25 kts | 69° |
| 2026-05-05 18:09 | 52.35539 | 13.50048 | 155 ft | 0 kts | 66° |
| 2026-05-05 18:10 | 52.35539 | 13.50050 | 155 ft | 3 kts | 65° |
| 2026-05-05 18:10 | 52.35612 | 13.50349 | 156 ft | 43 kts | 69° |
| 2026-05-05 18:11 | 52.35702 | 13.50692 | 156 ft | 14 kts | 39° |
| 2026-05-05 18:11 | 52.35714 | 13.50698 | 155 ft | 0 kts | 4° |
| 2026-05-05 18:11 | 52.35719 | 13.50696 | 155 ft | 4 kts | 352° |
| 2026-05-05 18:11 | 52.35769 | 13.50683 | 153 ft | 0 kts | 347° |
| 2026-05-05 18:12 | 52.35778 | 13.50692 | 153 ft | 3 kts | 33° |
| 2026-05-05 18:12 | 52.35814 | 13.50757 | 154 ft | 13 kts | 41° |
| 2026-05-05 18:12 | 52.35940 | 13.50719 | 155 ft | 28 kts | 345° |
| 2026-05-05 18:12 | 52.36088 | 13.50648 | 154 ft | 9 kts | 41° |
| 2026-05-05 18:13 | 52.36119 | 13.50701 | 155 ft | 13 kts | 51° |
| 2026-05-05 18:13 | 52.36128 | 13.50739 | 155 ft | 0 kts | 77° |
| 2026-05-05 18:13 | 52.36131 | 13.50755 | 156 ft | 2 kts | 71° |
| 2026-05-05 18:13 | 52.36134 | 13.50765 | 156 ft | 0 kts | 69° |